sensor_id;sensor_type;location;lat;lon;timestamp;temperature;humidity
65421;DHT22;52028;50.658;14.004;2022-11-13T00:01:29;4.10;91.49
65421;DHT22;52028;50.658;14.004;2022-11-13T00:03:57;4.03;91.88
65421;DHT22;52028;50.658;14.004;2022-11-13T00:06:22;3.96;92.05
65421;DHT22;52028;50.658;14.004;2022-11-13T00:08:52;3.96;92.31
65421;DHT22;52028;50.658;14.004;2022-11-13T00:11:18;4.09;92.24
65421;DHT22;52028;50.658;14.004;2022-11-13T00:13:44;4.30;91.74
65421;DHT22;52028;50.658;14.004;2022-11-13T00:16:15;4.31;91.57
65421;DHT22;52028;50.658;14.004;2022-11-13T00:18:40;4.41;91.28
65421;DHT22;52028;50.658;14.004;2022-11-13T00:21:06;4.40;91.18
65421;DHT22;52028;50.658;14.004;2022-11-13T00:23:32;4.44;91.45
65421;DHT22;52028;50.658;14.004;2022-11-13T00:26:06;4.48;91.21
65421;DHT22;52028;50.658;14.004;2022-11-13T00:28:32;4.49;91.14
65421;DHT22;52028;50.658;14.004;2022-11-13T00:30:59;4.58;91.04
65421;DHT22;52028;50.658;14.004;2022-11-13T00:33:24;4.65;90.83
65421;DHT22;52028;50.658;14.004;2022-11-13T00:35:50;4.71;90.54
65421;DHT22;52028;50.658;14.004;2022-11-13T00:38:15;4.71;90.41
65421;DHT22;52028;50.658;14.004;2022-11-13T00:40:40;4.75;90.37
65421;DHT22;52028;50.658;14.004;2022-11-13T00:43:06;4.68;90.31
65421;DHT22;52028;50.658;14.004;2022-11-13T00:45:31;4.61;90.55
65421;DHT22;52028;50.658;14.004;2022-11-13T00:47:56;4.65;90.44
65421;DHT22;52028;50.658;14.004;2022-11-13T00:50:21;4.64;90.32
65421;DHT22;52028;50.658;14.004;2022-11-13T00:52:47;4.64;90.31
65421;DHT22;52028;50.658;14.004;2022-11-13T00:55:12;4.69;90.04
65421;DHT22;52028;50.658;14.004;2022-11-13T00:57:37;4.65;89.95
65421;DHT22;52028;50.658;14.004;2022-11-13T01:00:03;4.69;90.01
65421;DHT22;52028;50.658;14.004;2022-11-13T01:02:29;4.73;90.18
65421;DHT22;52028;50.658;14.004;2022-11-13T01:04:54;4.64;90.09
65421;DHT22;52028;50.658;14.004;2022-11-13T01:07:19;4.62;90.13
65421;DHT22;52028;50.658;14.004;2022-11-13T01:09:48;4.58;90.10
65421;DHT22;52028;50.658;14.004;2022-11-13T01:12:14;4.56;90.12
65421;DHT22;52028;50.658;14.004;2022-11-13T01:14:39;4.59;90.12
65421;DHT22;52028;50.658;14.004;2022-11-13T01:17:05;4.62;90.10
65421;DHT22;52028;50.658;14.004;2022-11-13T01:19:30;4.69;89.98
65421;DHT22;52028;50.658;14.004;2022-11-13T01:21:55;4.72;89.76
65421;DHT22;52028;50.658;14.004;2022-11-13T01:24:21;4.69;89.95
65421;DHT22;52028;50.658;14.004;2022-11-13T01:26:46;4.72;89.83
65421;DHT22;52028;50.658;14.004;2022-11-13T01:29:11;4.80;89.37
65421;DHT22;52028;50.658;14.004;2022-11-13T01:31:36;4.76;89.46
65421;DHT22;52028;50.658;14.004;2022-11-13T01:34:02;4.77;89.52
65421;DHT22;52028;50.658;14.004;2022-11-13T01:36:27;4.77;89.44
65421;DHT22;52028;50.658;14.004;2022-11-13T01:38:53;4.76;89.52
65421;DHT22;52028;50.658;14.004;2022-11-13T01:43:50;4.84;89.49
65421;DHT22;52028;50.658;14.004;2022-11-13T01:46:32;4.86;89.11
65421;DHT22;52028;50.658;14.004;2022-11-13T01:54:12;4.22;90.45
65421;DHT22;52028;50.658;14.004;2022-11-13T01:56:40;4.20;90.45
65421;DHT22;52028;50.658;14.004;2022-11-13T01:59:10;4.28;90.54
65421;DHT22;52028;50.658;14.004;2022-11-13T02:01:37;4.14;90.66
65421;DHT22;52028;50.658;14.004;2022-11-13T02:04:03;3.96;90.85
65421;DHT22;52028;50.658;14.004;2022-11-13T02:06:32;3.93;91.09
65421;DHT22;52028;50.658;14.004;2022-11-13T02:09:00;3.83;91.18
65421;DHT22;52028;50.658;14.004;2022-11-13T02:11:25;3.75;91.52
65421;DHT22;52028;50.658;14.004;2022-11-13T02:13:51;3.69;91.86
65421;DHT22;52028;50.658;14.004;2022-11-13T02:16:16;3.71;92.09
65421;DHT22;52028;50.658;14.004;2022-11-13T02:18:42;3.68;92.45
65421;DHT22;52028;50.658;14.004;2022-11-13T02:21:29;3.68;92.31
65421;DHT22;52028;50.658;14.004;2022-11-13T02:26:49;3.78;92.32
65421;DHT22;52028;50.658;14.004;2022-11-13T02:29:15;3.81;92.32
65421;DHT22;52028;50.658;14.004;2022-11-13T02:31:40;3.83;92.32
65421;DHT22;52028;50.658;14.004;2022-11-13T02:34:06;3.94;92.20
65421;DHT22;52028;50.658;14.004;2022-11-13T02:36:31;4.02;91.92
65421;DHT22;52028;50.658;14.004;2022-11-13T02:38:59;4.13;91.51
65421;DHT22;52028;50.658;14.004;2022-11-13T02:41:26;4.16;91.16
65421;DHT22;52028;50.658;14.004;2022-11-13T02:43:51;3.93;91.13
65421;DHT22;52028;50.658;14.004;2022-11-13T02:46:16;3.93;91.34
65421;DHT22;52028;50.658;14.004;2022-11-13T02:48:42;4.06;91.38
65421;DHT22;52028;50.658;14.004;2022-11-13T02:51:07;4.09;91.20
65421;DHT22;52028;50.658;14.004;2022-11-13T02:53:32;4.06;91.14
65421;DHT22;52028;50.658;14.004;2022-11-13T02:55:58;4.09;91.26
65421;DHT22;52028;50.658;14.004;2022-11-13T02:58:23;4.18;91.15
65421;DHT22;52028;50.658;14.004;2022-11-13T03:00:48;4.20;90.85
65421;DHT22;52028;50.658;14.004;2022-11-13T03:03:14;3.83;91.19
65421;DHT22;52028;50.658;14.004;2022-11-13T03:05:39;3.89;91.61
65421;DHT22;52028;50.658;14.004;2022-11-13T03:08:05;3.87;91.50
65421;DHT22;52028;50.658;14.004;2022-11-13T03:10:31;3.89;91.36
65421;DHT22;52028;50.658;14.004;2022-11-13T03:12:57;3.90;91.23
65421;DHT22;52028;50.658;14.004;2022-11-13T03:15:22;3.87;91.29
65421;DHT22;52028;50.658;14.004;2022-11-13T03:17:48;3.87;91.43
65421;DHT22;52028;50.658;14.004;2022-11-13T03:20:13;3.82;91.42
65421;DHT22;52028;50.658;14.004;2022-11-13T03:22:38;3.83;91.29
65421;DHT22;52028;50.658;14.004;2022-11-13T03:25:04;3.75;91.06
65421;DHT22;52028;50.658;14.004;2022-11-13T03:27:30;3.55;91.90
65421;DHT22;52028;50.658;14.004;2022-11-13T03:29:57;3.48;91.92
65421;DHT22;52028;50.658;14.004;2022-11-13T03:32:22;3.45;91.73
65421;DHT22;52028;50.658;14.004;2022-11-13T03:34:47;3.35;92.19
65421;DHT22;52028;50.658;14.004;2022-11-13T03:37:12;3.34;92.44
65421;DHT22;52028;50.658;14.004;2022-11-13T03:39:38;3.32;92.35
65421;DHT22;52028;50.658;14.004;2022-11-13T03:42:03;3.40;92.43
65421;DHT22;52028;50.658;14.004;2022-11-13T03:44:28;3.47;92.29
65421;DHT22;52028;50.658;14.004;2022-11-13T03:46:54;3.58;92.01
65421;DHT22;52028;50.658;14.004;2022-11-13T03:49:19;3.61;91.65
65421;DHT22;52028;50.658;14.004;2022-11-13T03:51:44;3.61;91.89
65421;DHT22;52028;50.658;14.004;2022-11-13T03:54:09;3.44;91.46
65421;DHT22;52028;50.658;14.004;2022-11-13T03:56:35;3.32;91.72
65421;DHT22;52028;50.658;14.004;2022-11-13T03:59:00;3.23;92.05
65421;DHT22;52028;50.658;14.004;2022-11-13T04:01:25;3.19;92.43
65421;DHT22;52028;50.658;14.004;2022-11-13T04:03:51;3.24;92.43
65421;DHT22;52028;50.658;14.004;2022-11-13T04:06:16;3.24;92.67
65421;DHT22;52028;50.658;14.004;2022-11-13T04:08:41;3.38;92.58
65421;DHT22;52028;50.658;14.004;2022-11-13T04:11:09;3.45;92.41
65421;DHT22;52028;50.658;14.004;2022-11-13T04:13:35;3.37;92.46
65421;DHT22;52028;50.658;14.004;2022-11-13T04:16:00;3.35;92.53
65421;DHT22;52028;50.658;14.004;2022-11-13T04:18:25;3.37;92.29
65421;DHT22;52028;50.658;14.004;2022-11-13T04:20:51;3.37;92.24
65421;DHT22;52028;50.658;14.004;2022-11-13T04:23:16;3.48;91.96
65421;DHT22;52028;50.658;14.004;2022-11-13T04:25:42;3.55;91.41
65421;DHT22;52028;50.658;14.004;2022-11-13T04:28:09;3.51;91.36
65421;DHT22;52028;50.658;14.004;2022-11-13T04:30:35;3.42;91.67
65421;DHT22;52028;50.658;14.004;2022-11-13T04:33:00;3.45;91.79
65421;DHT22;52028;50.658;14.004;2022-11-13T04:35:25;3.45;92.01
65421;DHT22;52028;50.658;14.004;2022-11-13T04:37:51;3.41;91.88
65421;DHT22;52028;50.658;14.004;2022-11-13T04:40:17;3.30;92.16
65421;DHT22;52028;50.658;14.004;2022-11-13T04:42:42;3.26;92.35
65421;DHT22;52028;50.658;14.004;2022-11-13T04:45:19;3.31;92.14
65421;DHT22;52028;50.658;14.004;2022-11-13T04:47:45;3.37;91.93
65421;DHT22;52028;50.658;14.004;2022-11-13T04:50:12;3.27;92.05
65421;DHT22;52028;50.658;14.004;2022-11-13T04:52:37;3.19;92.26
65421;DHT22;52028;50.658;14.004;2022-11-13T04:55:03;3.14;92.45
65421;DHT22;52028;50.658;14.004;2022-11-13T04:57:29;3.04;92.94
65421;DHT22;52028;50.658;14.004;2022-11-13T04:59:54;3.07;92.92
65421;DHT22;52028;50.658;14.004;2022-11-13T05:02:20;3.10;92.48
65421;DHT22;52028;50.658;14.004;2022-11-13T05:04:45;3.19;92.44
65421;DHT22;52028;50.658;14.004;2022-11-13T05:07:10;3.23;92.36
65421;DHT22;52028;50.658;14.004;2022-11-13T05:09:36;3.28;92.13
65421;DHT22;52028;50.658;14.004;2022-11-13T05:12:01;3.27;92.01
65421;DHT22;52028;50.658;14.004;2022-11-13T05:14:26;3.37;92.26
65421;DHT22;52028;50.658;14.004;2022-11-13T05:16:52;3.47;91.77
65421;DHT22;52028;50.658;14.004;2022-11-13T05:19:17;3.47;91.64
65421;DHT22;52028;50.658;14.004;2022-11-13T05:21:43;3.42;91.72
65421;DHT22;52028;50.658;14.004;2022-11-13T05:24:09;3.47;91.47
65421;DHT22;52028;50.658;14.004;2022-11-13T05:26:37;3.48;91.40
65421;DHT22;52028;50.658;14.004;2022-11-13T05:29:02;3.40;91.69
65421;DHT22;52028;50.658;14.004;2022-11-13T05:31:28;3.42;91.40
65421;DHT22;52028;50.658;14.004;2022-11-13T05:33:53;3.47;91.03
65421;DHT22;52028;50.658;14.004;2022-11-13T05:36:20;3.41;90.83
65421;DHT22;52028;50.658;14.004;2022-11-13T05:38:45;3.44;90.72
65421;DHT22;52028;50.658;14.004;2022-11-13T05:41:19;3.34;90.68
65421;DHT22;52028;50.658;14.004;2022-11-13T05:43:45;3.44;90.94
65421;DHT22;52028;50.658;14.004;2022-11-13T05:46:13;3.37;90.90
65421;DHT22;52028;50.658;14.004;2022-11-13T05:48:39;3.28;90.70
65421;DHT22;52028;50.658;14.004;2022-11-13T05:51:11;3.17;90.69
65421;DHT22;52028;50.658;14.004;2022-11-13T05:53:37;3.23;90.53
65421;DHT22;52028;50.658;14.004;2022-11-13T05:56:15;3.20;90.45
65421;DHT22;52028;50.658;14.004;2022-11-13T05:58:41;3.14;90.41
65421;DHT22;52028;50.658;14.004;2022-11-13T06:01:14;3.02;91.01
65421;DHT22;52028;50.658;14.004;2022-11-13T06:03:41;2.95;91.15
65421;DHT22;52028;50.658;14.004;2022-11-13T06:06:08;2.99;91.33
65421;DHT22;52028;50.658;14.004;2022-11-13T06:08:34;3.00;91.32
65421;DHT22;52028;50.658;14.004;2022-11-13T06:11:01;3.04;91.25
65421;DHT22;52028;50.658;14.004;2022-11-13T06:13:27;2.97;91.29
65421;DHT22;52028;50.658;14.004;2022-11-13T06:15:54;2.92;91.61
65421;DHT22;52028;50.658;14.004;2022-11-13T06:18:22;2.91;91.59
65421;DHT22;52028;50.658;14.004;2022-11-13T06:20:48;3.06;91.52
65421;DHT22;52028;50.658;14.004;2022-11-13T06:23:14;3.06;91.37
65421;DHT22;52028;50.658;14.004;2022-11-13T06:25:39;3.17;91.12
65421;DHT22;52028;50.658;14.004;2022-11-13T06:28:04;3.20;91.01
65421;DHT22;52028;50.658;14.004;2022-11-13T06:30:30;3.06;91.28
65421;DHT22;52028;50.658;14.004;2022-11-13T06:32:55;3.10;91.45
65421;DHT22;52028;50.658;14.004;2022-11-13T06:35:20;3.14;91.40
65421;DHT22;52028;50.658;14.004;2022-11-13T06:37:45;3.20;91.22
65421;DHT22;52028;50.658;14.004;2022-11-13T06:40:11;3.26;90.91
65421;DHT22;52028;50.658;14.004;2022-11-13T06:42:37;3.09;91.09
65421;DHT22;52028;50.658;14.004;2022-11-13T06:45:03;3.16;91.17
65421;DHT22;52028;50.658;14.004;2022-11-13T06:47:28;3.34;90.99
65421;DHT22;52028;50.658;14.004;2022-11-13T06:49:54;3.41;90.63
65421;DHT22;52028;50.658;14.004;2022-11-13T06:52:19;3.47;90.51
65421;DHT22;52028;50.658;14.004;2022-11-13T06:54:44;3.57;90.43
65421;DHT22;52028;50.658;14.004;2022-11-13T06:57:10;3.59;90.28
65421;DHT22;52028;50.658;14.004;2022-11-13T06:59:35;3.57;90.41
65421;DHT22;52028;50.658;14.004;2022-11-13T07:02:01;3.65;90.48
65421;DHT22;52028;50.658;14.004;2022-11-13T07:04:26;3.75;90.49
65421;DHT22;52028;50.658;14.004;2022-11-13T07:06:52;3.72;90.70
65421;DHT22;52028;50.658;14.004;2022-11-13T07:09:17;3.71;90.76
65421;DHT22;52028;50.658;14.004;2022-11-13T07:11:42;3.79;90.58
65421;DHT22;52028;50.658;14.004;2022-11-13T07:14:10;3.86;90.23
65421;DHT22;52028;50.658;14.004;2022-11-13T07:16:35;3.89;89.87
65421;DHT22;52028;50.658;14.004;2022-11-13T07:19:00;3.90;89.80
65421;DHT22;52028;50.658;14.004;2022-11-13T07:21:26;3.79;89.70
65421;DHT22;52028;50.658;14.004;2022-11-13T07:23:51;3.68;90.13
65421;DHT22;52028;50.658;14.004;2022-11-13T07:26:17;3.74;90.17
65421;DHT22;52028;50.658;14.004;2022-11-13T07:28:43;3.65;90.19
65421;DHT22;52028;50.658;14.004;2022-11-13T07:31:10;3.66;90.48
65421;DHT22;52028;50.658;14.004;2022-11-13T07:33:36;3.57;90.43
65421;DHT22;52028;50.658;14.004;2022-11-13T07:36:01;3.61;90.46
65421;DHT22;52028;50.658;14.004;2022-11-13T07:38:27;3.54;90.53
65421;DHT22;52028;50.658;14.004;2022-11-13T07:40:52;3.47;90.66
65421;DHT22;52028;50.658;14.004;2022-11-13T07:43:18;3.34;91.12
65421;DHT22;52028;50.658;14.004;2022-11-13T07:45:43;3.35;91.45
65421;DHT22;52028;50.658;14.004;2022-11-13T07:48:09;3.45;91.41
65421;DHT22;52028;50.658;14.004;2022-11-13T07:50:36;3.45;91.37
65421;DHT22;52028;50.658;14.004;2022-11-13T07:53:04;3.55;91.16
65421;DHT22;52028;50.658;14.004;2022-11-13T07:55:32;3.57;90.84
65421;DHT22;52028;50.658;14.004;2022-11-13T07:57:58;3.54;90.65
65421;DHT22;52028;50.658;14.004;2022-11-13T08:00:25;3.69;90.72
65421;DHT22;52028;50.658;14.004;2022-11-13T08:02:51;3.72;90.44
65421;DHT22;52028;50.658;14.004;2022-11-13T08:05:16;3.78;90.35
65421;DHT22;52028;50.658;14.004;2022-11-13T08:07:42;3.79;90.18
65421;DHT22;52028;50.658;14.004;2022-11-13T08:10:08;3.90;90.08
65421;DHT22;52028;50.658;14.004;2022-11-13T08:12:33;3.90;89.80
65421;DHT22;52028;50.658;14.004;2022-11-13T08:14:58;3.97;89.54
65421;DHT22;52028;50.658;14.004;2022-11-13T08:17:24;3.97;89.34
65421;DHT22;52028;50.658;14.004;2022-11-13T08:19:49;3.93;89.01
65421;DHT22;52028;50.658;14.004;2022-11-13T08:22:15;3.85;89.05
65421;DHT22;52028;50.658;14.004;2022-11-13T08:24:40;3.76;89.45
65421;DHT22;52028;50.658;14.004;2022-11-13T08:27:06;3.75;89.83
65421;DHT22;52028;50.658;14.004;2022-11-13T08:29:31;3.82;89.83
65421;DHT22;52028;50.658;14.004;2022-11-13T08:31:57;3.82;89.60
65421;DHT22;52028;50.658;14.004;2022-11-13T08:34:22;3.90;89.60
65421;DHT22;52028;50.658;14.004;2022-11-13T08:36:47;3.93;89.64
65421;DHT22;52028;50.658;14.004;2022-11-13T08:39:13;4.06;89.62
65421;DHT22;52028;50.658;14.004;2022-11-13T08:41:38;4.10;89.50
65421;DHT22;52028;50.658;14.004;2022-11-13T08:44:04;4.06;88.95
65421;DHT22;52028;50.658;14.004;2022-11-13T08:46:29;4.07;89.08
65421;DHT22;52028;50.658;14.004;2022-11-13T08:48:54;4.09;89.14
65421;DHT22;52028;50.658;14.004;2022-11-13T08:51:20;4.09;89.06
65421;DHT22;52028;50.658;14.004;2022-11-13T08:53:45;4.11;89.27
65421;DHT22;52028;50.658;14.004;2022-11-13T08:56:11;4.27;89.30
65421;DHT22;52028;50.658;14.004;2022-11-13T08:58:36;4.34;88.77
65421;DHT22;52028;50.658;14.004;2022-11-13T09:01:02;4.42;88.58
65421;DHT22;52028;50.658;14.004;2022-11-13T09:03:27;4.30;88.47
65421;DHT22;52028;50.658;14.004;2022-11-13T09:05:53;4.27;88.75
65421;DHT22;52028;50.658;14.004;2022-11-13T09:08:18;4.36;88.78
65421;DHT22;52028;50.658;14.004;2022-11-13T09:10:43;4.33;88.49
65421;DHT22;52028;50.658;14.004;2022-11-13T09:13:09;4.31;88.45
65421;DHT22;52028;50.658;14.004;2022-11-13T09:15:37;4.31;88.42
65421;DHT22;52028;50.658;14.004;2022-11-13T09:18:03;4.44;88.05
65421;DHT22;52028;50.658;14.004;2022-11-13T09:20:30;4.40;87.76
65421;DHT22;52028;50.658;14.004;2022-11-13T09:22:57;4.30;87.81
65421;DHT22;52028;50.658;14.004;2022-11-13T09:25:23;4.30;87.81
65421;DHT22;52028;50.658;14.004;2022-11-13T09:27:57;4.30;87.67
65421;DHT22;52028;50.658;14.004;2022-11-13T09:30:23;4.37;88.03
65421;DHT22;52028;50.658;14.004;2022-11-13T09:32:52;4.30;87.99
65421;DHT22;52028;50.658;14.004;2022-11-13T09:35:18;4.38;88.09
65421;DHT22;52028;50.658;14.004;2022-11-13T09:38:19;4.28;88.15
65421;DHT22;52028;50.658;14.004;2022-11-13T09:40:54;4.34;88.30
65421;DHT22;52028;50.658;14.004;2022-11-13T09:45:54;4.31;88.12
65421;DHT22;52028;50.658;14.004;2022-11-13T09:48:24;4.24;88.31
65421;DHT22;52028;50.658;14.004;2022-11-13T09:50:52;4.20;88.52
65421;DHT22;52028;50.658;14.004;2022-11-13T09:53:17;4.27;88.49
65421;DHT22;52028;50.658;14.004;2022-11-13T10:01:35;4.31;88.21
65421;DHT22;52028;50.658;14.004;2022-11-13T10:04:04;4.28;88.38
65421;DHT22;52028;50.658;14.004;2022-11-13T10:06:57;4.27;88.60
65421;DHT22;52028;50.658;14.004;2022-11-13T10:09:53;4.18;89.19
65421;DHT22;52028;50.658;14.004;2022-11-13T10:12:20;4.06;89.39
65421;DHT22;52028;50.658;14.004;2022-11-13T10:14:50;4.04;89.56
65421;DHT22;52028;50.658;14.004;2022-11-13T10:17:36;4.10;89.67
65421;DHT22;52028;50.658;14.004;2022-11-13T10:20:23;4.03;89.76
65421;DHT22;52028;50.658;14.004;2022-11-13T10:22:53;4.00;89.92
65421;DHT22;52028;50.658;14.004;2022-11-13T10:25:21;4.03;90.26
65421;DHT22;52028;50.658;14.004;2022-11-13T10:27:49;4.11;90.02
65421;DHT22;52028;50.658;14.004;2022-11-13T10:30:17;4.25;90.14
65421;DHT22;52028;50.658;14.004;2022-11-13T10:32:44;4.38;89.65
65421;DHT22;52028;50.658;14.004;2022-11-13T10:38:03;4.38;89.47
65421;DHT22;52028;50.658;14.004;2022-11-13T10:40:34;4.40;89.63
65421;DHT22;52028;50.658;14.004;2022-11-13T10:43:18;4.41;89.46
65421;DHT22;52028;50.658;14.004;2022-11-13T10:45:58;4.38;89.38
65421;DHT22;52028;50.658;14.004;2022-11-13T10:48:33;4.45;89.48
65421;DHT22;52028;50.658;14.004;2022-11-13T10:53:44;4.61;89.21
65421;DHT22;52028;50.658;14.004;2022-11-13T10:56:29;4.71;89.14
65421;DHT22;52028;50.658;14.004;2022-11-13T11:01:28;4.82;88.12
65421;DHT22;52028;50.658;14.004;2022-11-13T11:03:53;4.92;88.14
65421;DHT22;52028;50.658;14.004;2022-11-13T11:06:19;5.04;87.79
65421;DHT22;52028;50.658;14.004;2022-11-13T11:08:44;5.13;87.61
65421;DHT22;52028;50.658;14.004;2022-11-13T11:11:15;5.11;87.31
65421;DHT22;52028;50.658;14.004;2022-11-13T11:14:37;5.11;87.29
65421;DHT22;52028;50.658;14.004;2022-11-13T11:17:05;5.06;87.40
65421;DHT22;52028;50.658;14.004;2022-11-13T11:19:35;5.04;87.50
65421;DHT22;52028;50.658;14.004;2022-11-13T11:22:05;4.97;87.63
65421;DHT22;52028;50.658;14.004;2022-11-13T11:24:36;4.99;87.90
65421;DHT22;52028;50.658;14.004;2022-11-13T11:27:14;5.01;87.83
65421;DHT22;52028;50.658;14.004;2022-11-13T11:30:30;5.04;87.76
65421;DHT22;52028;50.658;14.004;2022-11-13T11:32:44;5.11;87.41
65421;DHT22;52028;50.658;14.004;2022-11-13T11:35:24;5.07;87.48
65421;DHT22;52028;50.658;14.004;2022-11-13T11:37:58;5.04;87.66
65421;DHT22;52028;50.658;14.004;2022-11-13T11:40:40;5.04;87.65
65421;DHT22;52028;50.658;14.004;2022-11-13T11:46:03;4.96;88.39
65421;DHT22;52028;50.658;14.004;2022-11-13T11:48:30;4.83;88.51
65421;DHT22;52028;50.658;14.004;2022-11-13T11:50:58;4.86;88.95
65421;DHT22;52028;50.658;14.004;2022-11-13T11:58:53;5.13;88.63
65421;DHT22;52028;50.658;14.004;2022-11-13T12:10:04;5.32;88.27
65421;DHT22;52028;50.658;14.004;2022-11-13T12:13:02;5.34;88.00
65421;DHT22;52028;50.658;14.004;2022-11-13T12:15:55;5.36;87.98
65421;DHT22;52028;50.658;14.004;2022-11-13T12:18:26;5.52;87.63
65421;DHT22;52028;50.658;14.004;2022-11-13T12:32:10;5.67;86.93
65421;DHT22;52028;50.658;14.004;2022-11-13T12:34:46;5.76;87.00
65421;DHT22;52028;50.658;14.004;2022-11-13T12:37:19;5.77;86.93
65421;DHT22;52028;50.658;14.004;2022-11-13T12:39:56;5.79;86.91
65421;DHT22;52028;50.658;14.004;2022-11-13T12:48:35;6.06;86.54
65421;DHT22;52028;50.658;14.004;2022-11-13T12:51:06;6.13;86.42
65421;DHT22;52028;50.658;14.004;2022-11-13T12:58:51;5.77;87.66
65421;DHT22;52028;50.658;14.004;2022-11-13T13:01:18;5.36;88.62
65421;DHT22;52028;50.658;14.004;2022-11-13T13:15:35;5.72;88.91
65421;DHT22;52028;50.658;14.004;2022-11-13T13:20:56;5.70;88.69
65421;DHT22;52028;50.658;14.004;2022-11-13T13:23:28;5.67;88.69
65421;DHT22;52028;50.658;14.004;2022-11-13T13:26:04;5.73;88.60
65421;DHT22;52028;50.658;14.004;2022-11-13T13:28:31;5.80;88.52
65421;DHT22;52028;50.658;14.004;2022-11-13T13:33:49;5.79;88.44
65421;DHT22;52028;50.658;14.004;2022-11-13T13:36:38;5.58;89.06
65421;DHT22;52028;50.658;14.004;2022-11-13T13:42:06;5.45;89.59
65421;DHT22;52028;50.658;14.004;2022-11-13T13:44:45;5.63;89.02
65421;DHT22;52028;50.658;14.004;2022-11-13T13:47:37;5.66;89.04
65421;DHT22;52028;50.658;14.004;2022-11-13T13:50:06;5.67;88.67
65421;DHT22;52028;50.658;14.004;2022-11-13T13:52:34;5.66;88.64
65421;DHT22;52028;50.658;14.004;2022-11-13T13:55:04;5.66;88.93
65421;DHT22;52028;50.658;14.004;2022-11-13T13:57:32;5.69;88.71
65421;DHT22;52028;50.658;14.004;2022-11-13T13:59:58;5.73;88.72
65421;DHT22;52028;50.658;14.004;2022-11-13T14:02:24;5.66;88.59
65421;DHT22;52028;50.658;14.004;2022-11-13T14:04:51;5.56;89.06
65421;DHT22;52028;50.658;14.004;2022-11-13T14:09:48;5.16;90.57
65421;DHT22;52028;50.658;14.004;2022-11-13T14:12:20;5.13;90.89
65421;DHT22;52028;50.658;14.004;2022-11-13T14:14:46;5.07;91.22
65421;DHT22;52028;50.658;14.004;2022-11-13T14:17:21;5.16;91.14
65421;DHT22;52028;50.658;14.004;2022-11-13T14:19:51;5.24;91.14
65421;DHT22;52028;50.658;14.004;2022-11-13T14:22:17;5.07;91.56
65421;DHT22;52028;50.658;14.004;2022-11-13T14:24:55;5.18;91.57
65421;DHT22;52028;50.658;14.004;2022-11-13T14:27:24;5.32;91.18
65421;DHT22;52028;50.658;14.004;2022-11-13T14:29:53;5.34;91.01
65421;DHT22;52028;50.658;14.004;2022-11-13T14:32:26;5.36;90.88
65421;DHT22;52028;50.658;14.004;2022-11-13T14:34:56;5.53;90.61
65421;DHT22;52028;50.658;14.004;2022-11-13T14:37:34;5.58;90.29
65421;DHT22;52028;50.658;14.004;2022-11-13T14:40:03;5.62;90.18
65421;DHT22;52028;50.658;14.004;2022-11-13T14:42:37;5.77;89.92
65421;DHT22;52028;50.658;14.004;2022-11-13T14:45:14;5.72;89.64
65421;DHT22;52028;50.658;14.004;2022-11-13T14:47:40;5.83;89.48
65421;DHT22;52028;50.658;14.004;2022-11-13T14:50:30;5.67;89.66
65421;DHT22;52028;50.658;14.004;2022-11-13T14:53:03;5.77;89.68
65421;DHT22;52028;50.658;14.004;2022-11-13T14:55:31;5.86;89.44
65421;DHT22;52028;50.658;14.004;2022-11-13T14:57:57;5.96;89.28
65421;DHT22;52028;50.658;14.004;2022-11-13T15:02:56;5.97;89.08
65421;DHT22;52028;50.658;14.004;2022-11-13T15:05:21;5.93;89.15
65421;DHT22;52028;50.658;14.004;2022-11-13T15:07:47;6.00;89.21
65421;DHT22;52028;50.658;14.004;2022-11-13T15:10:16;6.08;88.96
65421;DHT22;52028;50.658;14.004;2022-11-13T15:12:42;6.13;88.67
65421;DHT22;52028;50.658;14.004;2022-11-13T15:15:15;6.28;88.32
65421;DHT22;52028;50.658;14.004;2022-11-13T15:17:42;6.34;88.12
65421;DHT22;52028;50.658;14.004;2022-11-13T15:20:16;6.29;88.03
65421;DHT22;52028;50.658;14.004;2022-11-13T15:22:43;6.15;88.27
65421;DHT22;52028;50.658;14.004;2022-11-13T15:25:13;5.91;88.94
65421;DHT22;52028;50.658;14.004;2022-11-13T15:27:39;6.08;88.96
65421;DHT22;52028;50.658;14.004;2022-11-13T15:30:05;6.21;88.71
65421;DHT22;52028;50.658;14.004;2022-11-13T15:32:31;6.20;88.45
65421;DHT22;52028;50.658;14.004;2022-11-13T15:34:56;6.29;88.36
65421;DHT22;52028;50.658;14.004;2022-11-13T15:37:21;6.35;88.11
65421;DHT22;52028;50.658;14.004;2022-11-13T15:39:47;6.32;88.14
65421;DHT22;52028;50.658;14.004;2022-11-13T15:42:14;6.36;88.15
65421;DHT22;52028;50.658;14.004;2022-11-13T15:44:40;6.38;88.05
65421;DHT22;52028;50.658;14.004;2022-11-13T15:47:32;6.36;88.15
65421;DHT22;52028;50.658;14.004;2022-11-13T15:49:59;6.43;87.82
65421;DHT22;52028;50.658;14.004;2022-11-13T15:52:26;6.45;87.77
65421;DHT22;52028;50.658;14.004;2022-11-13T15:54:53;6.46;87.80
65421;DHT22;52028;50.658;14.004;2022-11-13T15:57:23;6.41;87.85
65421;DHT22;52028;50.658;14.004;2022-11-13T15:59:49;6.29;88.06
65421;DHT22;52028;50.658;14.004;2022-11-13T16:02:15;6.29;88.25
65421;DHT22;52028;50.658;14.004;2022-11-13T16:04:41;6.34;88.21
65421;DHT22;52028;50.658;14.004;2022-11-13T16:07:16;6.45;87.90
65421;DHT22;52028;50.658;14.004;2022-11-13T16:09:45;6.35;87.89
65421;DHT22;52028;50.658;14.004;2022-11-13T16:12:11;6.35;88.04
65421;DHT22;52028;50.658;14.004;2022-11-13T16:14:37;6.41;87.99
65421;DHT22;52028;50.658;14.004;2022-11-13T16:17:04;6.39;87.98
65421;DHT22;52028;50.658;14.004;2022-11-13T16:19:29;6.43;87.99
65421;DHT22;52028;50.658;14.004;2022-11-13T16:21:55;6.43;87.99
65421;DHT22;52028;50.658;14.004;2022-11-13T16:24:20;6.39;87.99
65421;DHT22;52028;50.658;14.004;2022-11-13T16:26:54;6.31;88.23
65421;DHT22;52028;50.658;14.004;2022-11-13T16:29:21;6.21;88.61
65421;DHT22;52028;50.658;14.004;2022-11-13T16:31:47;6.17;88.84
65421;DHT22;52028;50.658;14.004;2022-11-13T16:34:13;6.13;88.94
65421;DHT22;52028;50.658;14.004;2022-11-13T16:36:38;6.10;88.92
65421;DHT22;52028;50.658;14.004;2022-11-13T16:39:04;6.03;89.16
65421;DHT22;52028;50.658;14.004;2022-11-13T16:41:31;6.04;89.21
65421;DHT22;52028;50.658;14.004;2022-11-13T16:43:56;5.98;89.41
65421;DHT22;52028;50.658;14.004;2022-11-13T16:46:37;5.81;89.57
65421;DHT22;52028;50.658;14.004;2022-11-13T16:49:11;5.76;90.01
65421;DHT22;52028;50.658;14.004;2022-11-13T16:51:36;5.63;90.19
65421;DHT22;52028;50.658;14.004;2022-11-13T16:54:01;5.48;90.59
65421;DHT22;52028;50.658;14.004;2022-11-13T16:56:27;5.35;90.92
65421;DHT22;52028;50.658;14.004;2022-11-13T16:58:55;5.16;91.24
65421;DHT22;52028;50.658;14.004;2022-11-13T17:01:20;5.13;91.62
65421;DHT22;52028;50.658;14.004;2022-11-13T17:03:49;5.06;91.91
65421;DHT22;52028;50.658;14.004;2022-11-13T17:06:20;5.01;92.14
65421;DHT22;52028;50.658;14.004;2022-11-13T17:08:50;4.94;92.32